Thursday, November 23, 2017, 2:28 AM EST
Back to Local

KWWD, Wildwood, Cape May County Airport

Location: Villas, NJ, United States Lat: 39.017
Local Time: 2:28 AM EST ( 7:28 GMT) Lon: -74.917
Time Zone: US/Eastern Elev: 22 ft

Show me the last for .
Show Decoded

2017-11-23 01:55 METAR KWWD 230655Z AUTO VRB06KT 10SM CLR 03/M04 A3014 RMK AO2 SLP208 T00281039 =
2017-11-23 00:55 METAR KWWD 230555Z AUTO 34007KT 10SM CLR 03/M04 A3013 RMK AO2 SLP205 T00281039
                 10078 20028 50007 =
2017-11-22 23:55 METAR KWWD 230455Z AUTO 32007G15KT 10SM CLR 04/M03 A3013 RMK AO2 SLP206
                 T00391033 401500039 =
2017-11-22 22:55 METAR KWWD 230355Z AUTO 33009G17KT 10SM CLR 04/M03 A3012 RMK AO2 SLP202
                 T00441028 =
2017-11-22 21:55 METAR KWWD 230255Z AUTO 32013G22KT 10SM CLR 06/M03 A3011 RMK AO2 SLP198
                 T00561028 53020 =
2017-11-22 20:55 METAR KWWD 230155Z AUTO 31011G19KT 290V350 10SM CLR 06/M01 A3007 RMK AO2 SLP186
                 T00611011 =
2017-11-22 19:55 METAR KWWD 230055Z AUTO 32011G21KT 10SM CLR 07/M01 A3005 RMK AO2 SLP179
                 T00721011 =
2017-11-22 18:55 METAR KWWD 222355Z AUTO 32011G22KT 10SM CLR 08/01 A3005 RMK AO2 SLP177 T00780006
                 10128 20078 51030 =
2017-11-22 17:55 METAR KWWD 222255Z AUTO 31007KT 10SM FEW046 08/02 A3003 RMK AO2 SLP172 T00830017
                 =
2017-11-22 16:55 METAR KWWD 222155Z AUTO 34011G19KT 10SM FEW048 09/02 A3000 RMK AO2 SLP161
                 T00940022 =
2017-11-22 15:55 METAR KWWD 222055Z AUTO 30013G19KT 10SM CLR 11/03 A2996 RMK AO2 PK WND
                 30026/2006 SLP147 T01110033 53014 =
2017-11-22 14:55 METAR KWWD 221955Z AUTO 30015G22KT 10SM CLR 12/03 A2994 RMK AO2 SLP141 T01170033
                 =
2017-11-22 13:55 METAR KWWD 221855Z AUTO 30013G21KT 10SM CLR 12/05 A2992 RMK AO2 SLP134 T01220050
                 =

Support USWX by starting your Amazon purchase here.